Time;durP1;ratioP1;P1;durP2;ratioP2;P2;SDS_P1;SDS_P2;PMS_P1;PMS_P2;Temp;Humidity;BMP_temperature;BMP_pressure;BME280_temperature;BME280_humidity;BME280_pressure;Samples;Min_cycle;Max_cycle;Signal;HPM_P1;HPM_P2
2022/12/31 00:00:37;;;;;;;;;;;5.60;99.90;;;;;;5033166;28;19917;-78
2022/12/31 00:03:04;;;;;;;;;;;5.60;99.90;;;;;;5014416;28;19921;-80
2022/12/31 00:05:30;;;;;;;;;;;5.60;99.90;;;;;;5031442;28;19905;-79
2022/12/31 00:07:57;;;;;;;;;;;3.10;99.90;;;;;;5036027;28;20572;-78
2022/12/31 00:10:24;;;;;;;;;;;5.20;99.90;;;;;;5036666;28;20000;-80
2022/12/31 00:12:49;;;;;;;;;;;5.60;99.90;;;;;;5020865;28;20001;-79
2022/12/31 00:15:16;;;;;;;;;;;5.60;99.90;;;;;;5018852;28;19905;-79
2022/12/31 00:17:42;;;;;;;;;;;4.90;99.90;;;;;;5002302;28;19913;-80
2022/12/31 00:20:09;;;;;;;;;;;5.60;99.90;;;;;;5020882;28;19920;-78
2022/12/31 00:22:35;;;;;;;;;;;5.60;99.90;;;;;;5003807;28;19912;-80
2022/12/31 00:25:02;;;;;;;;;;;5.50;99.90;;;;;;5021515;28;19909;-79
2022/12/31 00:27:31;;;;;;;;;;;5.50;99.90;;;;;;5005621;28;19901;-79
2022/12/31 00:29:56;;;;;;;;;;;5.50;99.90;;;;;;5038717;28;19956;-78
2022/12/31 00:32:22;;;;;;;;;;;5.50;99.90;;;;;;5021360;28;19967;-78
2022/12/31 00:34:48;;;;;;;;;;;5.40;99.90;;;;;;5020671;28;19940;-79
2022/12/31 00:37:13;;;;;;;;;;;5.40;99.90;;;;;;5024739;28;19905;-78
2022/12/31 00:39:42;;;;;;;;;;;5.40;99.90;;;;;;5043013;28;19935;-78
2022/12/31 00:42:07;;;;;;;;;;;5.30;99.90;;;;;;5024471;28;19901;-78
2022/12/31 00:44:33;;;;;;;;;;;5.40;99.90;;;;;;5021582;28;19916;-79
2022/12/31 00:46:59;;;;;;;;;;;5.50;99.90;;;;;;5042402;28;19943;-79
2022/12/31 00:49:24;;;;;;;;;;;5.40;99.90;;;;;;5038545;28;19901;-81
2022/12/31 00:51:50;;;;;;;;;;;8.20;99.90;;;;;;5037474;28;19924;-80
2022/12/31 00:54:16;;;;;;;;;;;5.10;99.90;;;;;;5039146;28;19917;-80
2022/12/31 00:56:41;;;;;;;;;;;5.40;99.90;;;;;;5039222;28;19984;-79
2022/12/31 00:59:07;;;;;;;;;;;5.00;99.90;;;;;;5043288;28;20046;-81
2022/12/31 01:01:34;;;;;;;;;;;6.80;99.90;;;;;;5025238;28;19909;-81
2022/12/31 01:04:01;;;;;;;;;;;5.00;99.90;;;;;;5039897;28;19928;-79
2022/12/31 01:06:27;;;;;;;;;;;7.60;99.90;;;;;;5038298;28;19905;-79
2022/12/31 01:08:54;;;;;;;;;;;5.10;99.90;;;;;;5037547;28;19980;-79
2022/12/31 01:11:22;;;;;;;;;;;5.20;99.90;;;;;;5035768;28;19913;-79
2022/12/31 01:14:02;;;;;;;;;;;5.10;99.90;;;;;;5036530;28;19905;-80
2022/12/31 01:16:30;;;;;;;;;;;3.50;99.90;;;;;;5015836;28;19905;-79
2022/12/31 01:19:00;;;;;;;;;;;5.00;99.90;;;;;;5033133;28;20352;-79
2022/12/31 01:21:26;;;;;;;;;;;5.00;99.90;;;;;;5035880;28;19912;-79
2022/12/31 01:23:51;;;;;;;;;;;5.00;99.90;;;;;;5033421;28;19936;-79
2022/12/31 01:26:18;;;;;;;;;;;4.90;99.90;;;;;;5034035;28;19951;-79
2022/12/31 01:28:44;;;;;;;;;;;5.00;99.90;;;;;;5016618;28;19911;-78
2022/12/31 01:31:12;;;;;;;;;;;5.00;99.90;;;;;;5018160;28;19916;-78
2022/12/31 01:33:38;;;;;;;;;;;5.30;99.90;;;;;;5040115;28;19905;-78
2022/12/31 01:36:14;;;;;;;;;;;4.90;99.90;;;;;;5038312;28;19912;-78
2022/12/31 01:38:40;;;;;;;;;;;5.50;99.90;;;;;;5019843;28;19940;-80
2022/12/31 01:41:06;;;;;;;;;;;4.90;99.90;;;;;;5036725;28;19920;-79
2022/12/31 01:43:47;;;;;;;;;;;4.90;99.90;;;;;;5035673;28;19941;-79
2022/12/31 01:46:19;;;;;;;;;;;4.90;99.90;;;;;;5035879;28;19956;-80
2022/12/31 01:48:48;;;;;;;;;;;2.90;99.90;;;;;;5017023;28;19963;-78
2022/12/31 01:51:13;;;;;;;;;;;4.90;99.90;;;;;;5037233;28;19976;-80
2022/12/31 01:53:39;;;;;;;;;;;4.80;99.90;;;;;;5020666;28;19950;-82
2022/12/31 01:56:07;;;;;;;;;;;4.80;99.90;;;;;;5036099;28;19912;-79
2022/12/31 01:58:43;;;;;;;;;;;7.10;99.90;;;;;;5036874;28;19963;-78
2022/12/31 02:01:11;;;;;;;;;;;4.70;99.90;;;;;;5017851;28;19964;-79
2022/12/31 02:03:37;;;;;;;;;;;4.70;99.90;;;;;;5036453;28;19905;-81
2022/12/31 02:06:05;;;;;;;;;;;4.60;99.90;;;;;;5004946;28;19955;-80
2022/12/31 02:08:37;;;;;;;;;;;4.60;99.90;;;;;;4999424;28;19905;-79
2022/12/31 02:11:23;;;;;;;;;;;4.60;99.90;;;;;;5011594;28;19983;-81
2022/12/31 02:13:50;;;;;;;;;;;4.60;99.90;;;;;;5036445;28;19963;-79
2022/12/31 02:16:24;;;;;;;;;;;4.50;99.90;;;;;;5020219;28;19905;-79
2022/12/31 02:19:10;;;;;;;;;;;4.60;99.90;;;;;;5012730;28;19913;-79
2022/12/31 02:21:54;;;;;;;;;;;4.50;99.90;;;;;;5012722;28;19909;-81
2022/12/31 02:24:38;;;;;;;;;;;5.40;99.90;;;;;;5011488;28;19962;-80
2022/12/31 02:27:10;;;;;;;;;;;4.50;99.90;;;;;;5016400;28;19905;-80
2022/12/31 02:29:48;;;;;;;;;;;4.50;99.90;;;;;;5031284;28;19936;-79
2022/12/31 02:32:23;;;;;;;;;;;4.40;99.90;;;;;;5029096;28;20031;-80
2022/12/31 02:34:53;;;;;;;;;;;4.40;99.90;;;;;;5032736;28;19905;-79
2022/12/31 02:37:20;;;;;;;;;;;4.40;99.90;;;;;;5021321;28;19905;-77
2022/12/31 02:39:46;;;;;;;;;;;4.40;99.90;;;;;;5036964;28;20008;-79
2022/12/31 02:42:15;;;;;;;;;;;3.50;99.90;;;;;;5020004;28;19909;-80
2022/12/31 02:44:42;;;;;;;;;;;4.30;99.90;;;;;;5037308;28;19913;-79
2022/12/31 02:47:08;;;;;;;;;;;4.30;99.90;;;;;;5037487;28;19916;-81
2022/12/31 02:49:39;;;;;;;;;;;4.20;99.90;;;;;;5035903;28;19905;-78
2022/12/31 02:52:13;;;;;;;;;;;5.10;99.90;;;;;;5017569;28;19944;-78
2022/12/31 02:54:54;;;;;;;;;;;3.10;99.90;;;;;;5035926;28;19924;-79
2022/12/31 02:57:26;;;;;;;;;;;4.00;99.90;;;;;;5037331;28;19901;-82
2022/12/31 03:02:41;;;;;;;;;;;1.50;99.90;;;;;;5039676;28;19924;-80
2022/12/31 03:05:08;;;;;;;;;;;4.40;99.90;;;;;;5021969;28;19929;-80
2022/12/31 03:07:33;;;;;;;;;;;3.80;99.90;;;;;;5021219;28;20005;-78
2022/12/31 03:10:02;;;;;;;;;;;3.80;99.90;;;;;;5038805;28;19905;-80
2022/12/31 03:12:47;;;;;;;;;;;4.00;99.90;;;;;;5023802;28;19901;-83
2022/12/31 03:15:19;;;;;;;;;;;4.00;99.90;;;;;;5022566;28;20007;-79
2022/12/31 03:17:51;;;;;;;;;;;4.00;99.90;;;;;;5022766;28;19928;-79
2022/12/31 03:23:03;;;;;;;;;;;4.00;99.90;;;;;;5042011;28;19912;-79
2022/12/31 03:25:33;;;;;;;;;;;4.10;99.90;;;;;;5041767;28;19987;-79
2022/12/31 03:27:59;;;;;;;;;;;4.10;99.90;;;;;;5025467;28;19901;-79
2022/12/31 03:30:28;;;;;;;;;;;4.20;99.90;;;;;;5023119;28;19915;-80
2022/12/31 03:32:55;;;;;;;;;;;4.20;99.90;;;;;;5024293;28;19913;-80
2022/12/31 03:35:28;;;;;;;;;;;4.20;99.90;;;;;;5023560;28;19905;-81
2022/12/31 03:37:56;;;;;;;;;;;4.10;99.90;;;;;;5024819;28;19909;-79
2022/12/31 03:40:23;;;;;;;;;;;4.10;99.90;;;;;;5041217;28;19923;-79
2022/12/31 03:42:58;;;;;;;;;;;4.40;99.90;;;;;;5041322;28;19901;-78
2022/12/31 03:45:46;;;;;;;;;;;3.50;99.90;;;;;;5034532;28;19952;-79
2022/12/31 03:48:12;;;;;;;;;;;4.00;99.90;;;;;;5024685;28;19901;-79
2022/12/31 03:50:37;;;;;;;;;;;4.40;99.90;;;;;;5024636;28;20028;-80
2022/12/31 03:53:04;;;;;;;;;;;5.80;99.90;;;;;;5040031;28;19913;-79
2022/12/31 03:55:31;;;;;;;;;;;4.10;99.90;;;;;;5039549;28;19920;-78
2022/12/31 03:57:57;;;;;;;;;;;4.10;99.90;;;;;;5039912;28;19913;-79
2022/12/31 04:00:22;;;;;;;;;;;4.40;99.90;;;;;;5040825;28;19916;-79
2022/12/31 04:02:48;;;;;;;;;;;4.10;99.90;;;;;;5022814;28;19905;-79
2022/12/31 04:05:15;;;;;;;;;;;4.00;99.90;;;;;;5040724;28;19901;-78
2022/12/31 04:07:41;;;;;;;;;;;1.10;99.90;;;;;;5023018;28;19901;-78
2022/12/31 04:10:08;;;;;;;;;;;4.00;99.90;;;;;;5021877;28;19905;-80
2022/12/31 04:12:37;;;;;;;;;;;4.40;99.90;;;;;;5044289;28;19909;-79
2022/12/31 04:15:06;;;;;;;;;;;4.00;99.90;;;;;;5029990;28;20615;-79
2022/12/31 04:17:32;;;;;;;;;;;3.90;99.90;;;;;;5047034;28;19905;-79
2022/12/31 04:19:58;;;;;;;;;;;3.90;99.90;;;;;;5027351;28;19915;-79
2022/12/31 04:22:23;;;;;;;;;;;3.90;99.90;;;;;;5046932;28;19981;-80
2022/12/31 04:24:49;;;;;;;;;;;3.70;99.90;;;;;;5044961;28;19944;-78
2022/12/31 04:27:14;;;;;;;;;;;3.10;99.90;;;;;;5026945;28;19905;-80
2022/12/31 04:29:41;;;;;;;;;;;2.60;99.90;;;;;;5046051;28;20155;-80
2022/12/31 04:32:07;;;;;;;;;;;3.80;99.90;;;;;;5025299;28;19912;-79
2022/12/31 04:34:36;;;;;;;;;;;4.20;99.90;;;;;;5042675;28;19904;-80
2022/12/31 04:37:02;;;;;;;;;;;2.80;99.90;;;;;;5022521;28;20560;-78
2022/12/31 04:39:31;;;;;;;;;;;3.80;99.90;;;;;;5038788;28;20000;-79
2022/12/31 04:41:56;;;;;;;;;;;3.90;99.90;;;;;;5023660;28;19909;-78
2022/12/31 04:44:23;;;;;;;;;;;3.90;99.90;;;;;;5025020;28;19955;-79
2022/12/31 04:46:48;;;;;;;;;;;3.80;99.90;;;;;;5026827;28;19947;-79
2022/12/31 04:49:14;;;;;;;;;;;3.80;99.90;;;;;;5025393;28;19944;-80
2022/12/31 04:51:40;;;;;;;;;;;3.80;99.90;;;;;;5021252;28;20366;-82
2022/12/31 04:54:08;;;;;;;;;;;4.00;99.90;;;;;;5015890;28;19909;-82
2022/12/31 04:56:38;;;;;;;;;;;3.60;99.90;;;;;;5030070;28;19917;-81
2022/12/31 04:59:04;;;;;;;;;;;1.70;99.90;;;;;;5009713;28;19909;-81
2022/12/31 05:01:35;;;;;;;;;;;3.80;99.90;;;;;;5031471;28;19955;-79
2022/12/31 05:04:06;;;;;;;;;;;4.20;99.90;;;;;;5033911;28;19901;-80
2022/12/31 05:06:35;;;;;;;;;;;4.00;99.90;;;;;;5034564;28;19957;-79
2022/12/31 05:09:01;;;;;;;;;;;4.10;99.90;;;;;;5017000;28;20680;-79
2022/12/31 05:11:27;;;;;;;;;;;3.90;99.90;;;;;;5019053;28;19936;-80
2022/12/31 05:13:53;;;;;;;;;;;2.70;99.90;;;;;;5018724;28;20406;-79
2022/12/31 05:16:18;;;;;;;;;;;4.30;99.90;;;;;;5033289;28;19906;-77
2022/12/31 05:18:47;;;;;;;;;;;4.20;99.90;;;;;;5017229;28;19916;-78
2022/12/31 05:21:19;;;;;;;;;;;4.30;99.90;;;;;;5018945;28;19977;-80
2022/12/31 05:23:44;;;;;;;;;;;4.30;99.90;;;;;;5018928;28;19909;-79
2022/12/31 05:26:10;;;;;;;;;;;3.80;99.90;;;;;;5038111;28;19979;-78
2022/12/31 05:28:38;;;;;;;;;;;2.20;99.90;;;;;;5017951;28;19901;-78
2022/12/31 05:31:04;;;;;;;;;;;3.90;99.90;;;;;;5035588;28;20660;-80
2022/12/31 05:33:30;;;;;;;;;;;3.90;99.90;;;;;;5034592;28;19933;-76
2022/12/31 05:35:57;;;;;;;;;;;3.90;99.90;;;;;;5028868;28;19941;-80
2022/12/31 05:38:23;;;;;;;;;;;2.40;99.90;;;;;;5016284;28;19905;-77
2022/12/31 05:40:57;;;;;;;;;;;3.80;99.90;;;;;;5013543;28;19936;-77
2022/12/31 05:43:22;;;;;;;;;;;3.80;99.90;;;;;;5015452;28;19901;-77
2022/12/31 05:45:48;;;;;;;;;;;3.80;99.90;;;;;;5015413;28;19937;-79
2022/12/31 05:48:13;;;;;;;;;;;3.90;99.90;;;;;;5016342;28;19944;-79
2022/12/31 05:50:39;;;;;;;;;;;3.80;99.90;;;;;;5021372;28;19936;-78
2022/12/31 05:53:05;;;;;;;;;;;3.80;99.90;;;;;;5021147;28;19916;-78
2022/12/31 05:55:30;;;;;;;;;;;3.80;99.90;;;;;;5026247;28;19911;-78
2022/12/31 05:57:56;;;;;;;;;;;3.70;99.90;;;;;;5001831;28;20076;-78
2022/12/31 06:00:23;;;;;;;;;;;3.80;99.90;;;;;;5015391;28;19909;-79
2022/12/31 06:02:48;;;;;;;;;;;3.80;99.90;;;;;;5016309;28;20142;-78
2022/12/31 06:05:14;;;;;;;;;;;3.70;99.90;;;;;;5016446;28;20419;-78
2022/12/31 06:07:42;;;;;;;;;;;3.80;99.90;;;;;;5019253;28;19909;-78
2022/12/31 06:10:08;;;;;;;;;;;5.10;99.90;;;;;;5037394;28;19905;-80
2022/12/31 06:12:37;;;;;;;;;;;3.60;99.90;;;;;;5038501;28;20598;-77
2022/12/31 06:15:02;;;;;;;;;;;3.60;99.90;;;;;;5037649;28;19901;-78
2022/12/31 06:17:31;;;;;;;;;;;3.60;99.90;;;;;;5035019;28;19905;-78
2022/12/31 06:19:57;;;;;;;;;;;3.50;99.90;;;;;;5037015;28;19909;-80
2022/12/31 06:22:25;;;;;;;;;;;3.80;99.90;;;;;;5038673;28;19920;-78
2022/12/31 06:24:51;;;;;;;;;;;3.90;99.90;;;;;;5036292;28;19901;-83
2022/12/31 06:27:17;;;;;;;;;;;4.60;99.90;;;;;;5037184;28;19912;-79
2022/12/31 06:29:44;;;;;;;;;;;3.90;99.90;;;;;;5035873;28;19955;-78
2022/12/31 06:32:10;;;;;;;;;;;4.10;99.90;;;;;;5036534;28;19920;-79
2022/12/31 06:34:36;;;;;;;;;;;3.70;99.90;;;;;;5035879;28;20580;-78
2022/12/31 06:37:02;;;;;;;;;;;2.90;99.90;;;;;;5035359;28;19916;-81
2022/12/31 06:39:28;;;;;;;;;;;4.30;99.90;;;;;;5034240;28;20459;-79
2022/12/31 06:41:58;;;;;;;;;;;3.60;99.90;;;;;;5032907;28;19909;-82
2022/12/31 06:44:24;;;;;;;;;;;3.80;99.90;;;;;;5035473;28;19917;-78
2022/12/31 06:46:50;;;;;;;;;;;4.10;99.90;;;;;;5035722;28;19905;-80
2022/12/31 06:49:16;;;;;;;;;;;3.90;99.90;;;;;;5039603;28;19909;-78
2022/12/31 06:51:44;;;;;;;;;;;2.90;99.90;;;;;;5037808;28;19908;-79
2022/12/31 06:54:10;;;;;;;;;;;0.60;99.90;;;;;;5035676;28;20094;-79
2022/12/31 06:56:38;;;;;;;;;;;3.90;99.90;;;;;;5037358;28;20463;-78
2022/12/31 06:59:07;;;;;;;;;;;3.90;99.90;;;;;;5037112;28;19992;-78
2022/12/31 07:01:35;;;;;;;;;;;3.90;99.90;;;;;;5041557;28;19905;-78
2022/12/31 07:04:19;;;;;;;;;;;4.00;99.90;;;;;;5040326;28;20122;-78
2022/12/31 07:06:57;;;;;;;;;;;4.00;99.90;;;;;;5040002;28;19976;-78
2022/12/31 07:09:33;;;;;;;;;;;4.00;99.90;;;;;;5041337;28;19909;-78
2022/12/31 07:12:10;;;;;;;;;;;4.00;99.90;;;;;;5038428;28;19901;-79
2022/12/31 07:14:43;;;;;;;;;;;3.20;99.90;;;;;;5038350;28;19901;-77
2022/12/31 07:17:27;;;;;;;;;;;4.00;99.90;;;;;;5036317;28;19908;-77
2022/12/31 07:20:13;;;;;;;;;;;3.90;99.90;;;;;;5043639;28;19976;-79
2022/12/31 07:22:38;;;;;;;;;;;2.90;99.90;;;;;;5042390;28;19973;-78
2022/12/31 07:25:05;;;;;;;;;;;4.00;99.90;;;;;;5037130;28;19972;-80
2022/12/31 07:27:52;;;;;;;;;;;4.00;99.90;;;;;;5034713;28;19909;-83
2022/12/31 07:30:23;;;;;;;;;;;4.90;99.90;;;;;;5040920;28;19897;-80
2022/12/31 07:32:49;;;;;;;;;;;4.10;99.90;;;;;;5042284;28;20561;-79
2022/12/31 07:35:27;;;;;;;;;;;4.10;99.90;;;;;;5040134;28;19901;-78
2022/12/31 07:37:57;;;;;;;;;;;4.10;99.90;;;;;;5024359;28;19909;-78
2022/12/31 07:40:28;;;;;;;;;;;4.10;99.90;;;;;;5026770;28;19980;-80
2022/12/31 07:43:02;;;;;;;;;;;4.30;99.90;;;;;;5027440;28;19908;-78
2022/12/31 07:45:43;;;;;;;;;;;4.50;99.90;;;;;;5028190;28;19997;-80
2022/12/31 07:48:28;;;;;;;;;;;4.60;99.90;;;;;;5033087;22;19956;-81
2022/12/31 07:50:57;;;;;;;;;;;4.80;99.90;;;;;;5042284;28;19909;-78
2022/12/31 07:53:25;;;;;;;;;;;4.90;99.90;;;;;;5037619;28;19945;-79
2022/12/31 07:55:56;;;;;;;;;;;4.90;99.90;;;;;;5032905;28;19912;-78
2022/12/31 07:58:24;;;;;;;;;;;5.90;99.90;;;;;;5015326;28;19916;-81
2022/12/31 08:00:51;;;;;;;;;;;5.40;99.90;;;;;;5037550;28;19913;-79
2022/12/31 08:03:19;;;;;;;;;;;5.70;99.90;;;;;;5034708;28;19901;-78
2022/12/31 08:05:55;;;;;;;;;;;5.80;99.90;;;;;;5018615;28;19909;-78
2022/12/31 08:08:31;;;;;;;;;;;5.30;99.90;;;;;;5037263;28;19933;-79
2022/12/31 08:11:00;;;;;;;;;;;5.30;99.90;;;;;;5025910;28;19964;-79
2022/12/31 08:13:26;;;;;;;;;;;7.50;99.90;;;;;;5033934;28;19928;-77
2022/12/31 08:15:52;;;;;;;;;;;5.50;99.90;;;;;;5040540;28;20613;-77
2022/12/31 08:18:18;;;;;;;;;;;5.50;99.90;;;;;;5040397;28;19905;-79
2022/12/31 08:20:57;;;;;;;;;;;6.40;99.90;;;;;;5018978;28;20004;-77
2022/12/31 08:23:27;;;;;;;;;;;5.70;99.90;;;;;;5038795;28;19969;-78
2022/12/31 08:26:02;;;;;;;;;;;5.70;99.90;;;;;;5002466;28;19905;-77
2022/12/31 08:28:40;;;;;;;;;;;7.90;99.90;;;;;;5004619;28;20115;-78
2022/12/31 08:31:13;;;;;;;;;;;4.60;99.90;;;;;;5012027;28;20076;-78
2022/12/31 08:33:59;;;;;;;;;;;5.90;99.90;;;;;;4996654;28;19982;-77
2022/12/31 08:36:48;;;;;;;;;;;5.70;99.90;;;;;;5022187;28;19904;-78
2022/12/31 08:39:22;;;;;;;;;;;5.80;99.90;;;;;;4992876;28;19909;-79
2022/12/31 08:41:50;;;;;;;;;;;2.90;99.90;;;;;;4977579;28;19906;-79
2022/12/31 08:44:34;;;;;;;;;;;6.30;99.90;;;;;;4978848;28;19949;-77
2022/12/31 08:47:08;;;;;;;;;;;6.00;99.90;;;;;;4984445;28;20160;-77
2022/12/31 08:49:34;;;;;;;;;;;6.20;99.90;;;;;;4977764;28;19910;-78
2022/12/31 08:52:00;;;;;;;;;;;6.20;99.90;;;;;;4976947;28;19908;-77
2022/12/31 08:54:26;;;;;;;;;;;6.40;99.90;;;;;;4960528;28;20249;-78
2022/12/31 08:56:58;;;;;;;;;;;4.90;99.90;;;;;;4979204;28;19906;-80
2022/12/31 08:59:30;;;;;;;;;;;6.70;99.90;;;;;;4988599;28;19910;-80
2022/12/31 09:02:14;;;;;;;;;;;6.90;99.90;;;;;;4996117;28;20041;-79
2022/12/31 09:04:40;;;;;;;;;;;7.10;99.90;;;;;;4996057;28;19941;-79
2022/12/31 09:07:08;;;;;;;;;;;7.20;99.90;;;;;;4996016;28;19906;-77
2022/12/31 09:09:37;;;;;;;;;;;7.40;99.90;;;;;;4994050;28;20012;-76
2022/12/31 09:12:11;;;;;;;;;;;7.50;99.90;;;;;;4992989;28;19961;-78
2022/12/31 09:14:40;;;;;;;;;;;7.70;99.90;;;;;;4983205;28;19910;-78
2022/12/31 09:17:35;;;;;;;;;;;7.90;99.90;;;;;;5005641;28;19913;-77
2022/12/31 09:20:01;;;;;;;;;;;7.90;99.90;;;;;;4999249;28;20011;-81
2022/12/31 09:22:26;;;;;;;;;;;8.10;99.90;;;;;;5012266;28;19959;-79
2022/12/31 09:24:52;;;;;;;;;;;8.20;99.90;;;;;;5017322;28;19921;-81
2022/12/31 09:27:21;;;;;;;;;;;8.40;99.90;;;;;;5010473;28;19948;-76
2022/12/31 09:29:56;;;;;;;;;;;8.70;99.90;;;;;;5027482;28;19952;-79
2022/12/31 09:32:36;;;;;;;;;;;9.00;99.90;;;;;;5018098;28;19944;-78
2022/12/31 09:35:02;;;;;;;;;;;9.00;99.90;;;;;;5012637;28;19912;-81
2022/12/31 09:37:40;;;;;;;;;;;9.10;99.90;;;;;;5008923;28;20265;-77
2022/12/31 09:40:22;;;;;;;;;;;9.30;99.90;;;;;;5028878;28;19946;-78
2022/12/31 09:42:59;;;;;;;;;;;11.30;99.90;;;;;;5029791;28;19909;-78
2022/12/31 09:45:43;;;;;;;;;;;9.50;99.90;;;;;;5029961;28;20199;-78
2022/12/31 09:48:27;;;;;;;;;;;9.60;99.90;;;;;;5032828;28;19917;-78
2022/12/31 09:50:58;;;;;;;;;;;9.80;99.90;;;;;;5012678;28;19912;-80
2022/12/31 09:53:42;;;;;;;;;;;9.90;99.90;;;;;;5013216;28;20024;-80
2022/12/31 09:56:27;;;;;;;;;;;10.10;99.90;;;;;;4994149;28;19913;-77
2022/12/31 09:58:58;;;;;;;;;;;10.30;99.90;;;;;;5009347;28;20124;-78
2022/12/31 10:01:36;;;;;;;;;;;10.40;99.90;;;;;;5010967;28;19909;-80
2022/12/31 10:04:22;;;;;;;;;;;10.50;99.90;;;;;;5012942;28;19909;-77
2022/12/31 10:06:51;;;;;;;;;;;10.80;99.90;;;;;;5015961;28;19929;-78
2022/12/31 10:09:35;;;;;;;;;;;10.80;99.90;;;;;;5028001;28;20451;-80
2022/12/31 10:12:12;;;;;;;;;;;10.80;99.90;;;;;;5030226;28;19917;-80
2022/12/31 10:14:38;;;;;;;;;;;11.00;99.90;;;;;;5031023;28;19901;-79
2022/12/31 10:17:33;;;;;;;;;;;11.10;99.90;;;;;;5033712;28;19936;-78
2022/12/31 10:20:02;;;;;;;;;;;11.20;99.90;;;;;;4987597;28;19920;-79
2022/12/31 10:22:41;;;;;;;;;;;11.40;99.90;;;;;;4961034;28;19910;-81
2022/12/31 10:25:25;;;;;;;;;;;11.60;99.90;;;;;;4962145;28;19942;-76
2022/12/31 10:28:03;;;;;;;;;;;11.60;99.90;;;;;;4961665;28;19906;-78
2022/12/31 10:30:32;;;;;;;;;;;11.90;99.90;;;;;;4971987;28;19940;-79
2022/12/31 10:32:59;;;;;;;;;;;12.10;99.90;;;;;;4978975;28;19909;-80
2022/12/31 10:35:43;;;;;;;;;;;12.30;99.90;;;;;;4979864;28;19913;-76
2022/12/31 10:38:11;;;;;;;;;;;12.50;99.90;;;;;;4966015;28;20535;-80
2022/12/31 10:40:45;;;;;;;;;;;12.40;99.90;;;;;;4969410;28;19920;-78
2022/12/31 10:43:38;;;;;;;;;;;12.50;99.90;;;;;;4978928;28;20605;-78
2022/12/31 10:46:30;;;;;;;;;;;12.70;99.90;;;;;;4962854;28;20008;-77
2022/12/31 10:49:05;;;;;;;;;;;12.80;99.90;;;;;;4920868;29;19922;-77
2022/12/31 10:51:49;;;;;;;;;;;12.90;99.90;;;;;;4925212;29;19910;-79
2022/12/31 10:54:17;;;;;;;;;;;12.90;99.90;;;;;;4939055;28;20401;-78
2022/12/31 10:56:43;;;;;;;;;;;12.90;99.90;;;;;;4943822;28;19910;-80
2022/12/31 10:59:27;;;;;;;;;;;12.70;99.90;;;;;;4972522;28;19914;-81
2022/12/31 11:02:11;;;;;;;;;;;13.10;99.90;;;;;;4949069;28;20419;-79
2022/12/31 11:04:46;;;;;;;;;;;13.10;99.90;;;;;;4954973;28;19913;-79
2022/12/31 11:07:30;;;;;;;;;;;13.30;99.90;;;;;;4973584;28;19906;-78
2022/12/31 11:10:06;;;;;;;;;;;13.20;99.90;;;;;;4970801;28;20028;-82
2022/12/31 11:12:35;;;;;;;;;;;13.40;99.90;;;;;;4958096;28;20660;-79
2022/12/31 11:15:19;;;;;;;;;;;13.40;99.90;;;;;;4957378;28;19918;-80
2022/12/31 11:18:03;;;;;;;;;;;13.50;99.90;;;;;;4956585;28;19910;-77
2022/12/31 11:20:47;;;;;;;;;;;13.40;99.90;;;;;;4955437;28;20065;-80
2022/12/31 11:23:31;;;;;;;;;;;13.40;99.90;;;;;;4957897;28;19925;-76
2022/12/31 11:26:15;;;;;;;;;;;13.60;99.90;;;;;;4983618;28;19995;-79
2022/12/31 11:28:49;;;;;;;;;;;13.60;99.90;;;;;;5010150;28;19917;-76
2022/12/31 11:31:33;;;;;;;;;;;16.20;99.90;;;;;;4998040;28;19905;-76
2022/12/31 11:34:18;;;;;;;;;;;13.70;99.90;;;;;;5009451;28;20028;-79
2022/12/31 11:36:44;;;;;;;;;;;13.80;99.90;;;;;;5010830;28;19996;-77
2022/12/31 11:39:12;;;;;;;;;;;13.90;99.90;;;;;;5011420;28;20050;-78
2022/12/31 11:41:41;;;;;;;;;;;14.10;99.90;;;;;;4999503;28;19909;-80
2022/12/31 11:44:22;;;;;;;;;;;14.20;99.90;;;;;;5013074;28;20578;-79
2022/12/31 11:46:55;;;;;;;;;;;14.30;99.90;;;;;;5008826;28;20015;-76
2022/12/31 11:49:20;;;;;;;;;;;14.40;99.90;;;;;;5011034;28;19976;-79
2022/12/31 11:51:46;;;;;;;;;;;14.60;99.90;;;;;;5007801;28;19935;-76
2022/12/31 11:54:30;;;;;;;;;;;14.70;99.90;;;;;;5013584;28;19905;-81
2022/12/31 11:57:17;;;;;;;;;;;14.80;99.90;;;;;;5014007;28;19973;-78
2022/12/31 11:59:44;;;;;;;;;;;15.00;99.90;;;;;;5011970;28;19917;-75
2022/12/31 12:02:24;;;;;;;;;;;15.10;99.90;;;;;;4990591;28;20028;-76
2022/12/31 12:04:51;;;;;;;;;;;15.30;99.90;;;;;;4996087;28;19905;-80
2022/12/31 12:07:17;;;;;;;;;;;14.50;99.90;;;;;;5012265;28;20019;-77
2022/12/31 12:09:43;;;;;;;;;;;15.00;99.90;;;;;;5007871;28;20560;-76
2022/12/31 12:12:09;;;;;;;;;;;15.20;99.90;;;;;;5009936;28;19996;-79
2022/12/31 12:14:35;;;;;;;;;;;15.30;99.90;;;;;;5010412;28;20005;-80
2022/12/31 12:17:02;;;;;;;;;;;15.50;99.90;;;;;;5008044;28;20036;-80
2022/12/31 12:19:30;;;;;;;;;;;15.60;99.90;;;;;;5008198;28;20605;-78
2022/12/31 12:22:10;;;;;;;;;;;15.80;99.90;;;;;;4996468;28;20012;-79
2022/12/31 12:24:36;;;;;;;;;;;16.00;99.60;;;;;;5012865;28;19963;-77
2022/12/31 12:27:04;;;;;;;;;;;16.10;98.20;;;;;;5017865;28;19909;-77
2022/12/31 12:29:33;;;;;;;;;;;16.10;99.30;;;;;;4999516;28;19906;-77
2022/12/31 12:32:06;;;;;;;;;;;16.20;98.80;;;;;;4999954;28;19906;-79
2022/12/31 12:34:36;;;;;;;;;;;16.40;99.20;;;;;;4982711;28;19909;-84
2022/12/31 12:37:02;;;;;;;;;;;16.50;98.80;;;;;;4985613;28;19916;-81
2022/12/31 12:39:33;;;;;;;;;;;16.20;98.20;;;;;;5018306;28;20123;-78
2022/12/31 12:42:10;;;;;;;;;;;16.40;97.20;;;;;;5018394;28;19936;-78
2022/12/31 12:44:36;;;;;;;;;;;16.50;97.40;;;;;;5018018;28;20093;-76
2022/12/31 12:47:03;;;;;;;;;;;18.40;98.10;;;;;;5021529;28;20007;-76
2022/12/31 12:49:53;;;;;;;;;;;16.80;96.70;;;;;;5004007;28;19951;-75
2022/12/31 12:52:31;;;;;;;;;;;16.80;96.50;;;;;;5021509;28;19904;-78
2022/12/31 12:55:19;;;;;;;;;;;16.80;96.60;;;;;;4981752;28;20119;-83
2022/12/31 12:57:53;;;;;;;;;;;16.70;96.70;;;;;;5018852;28;20540;-76
2022/12/31 13:00:19;;;;;;;;;;;16.60;96.90;;;;;;5019136;28;19909;-78
2022/12/31 13:02:59;;;;;;;;;;;19.20;96.70;;;;;;5000621;28;19982;-78
2022/12/31 13:05:25;;;;;;;;;;;16.30;94.80;;;;;;5018113;28;19912;-79
2022/12/31 13:08:09;;;;;;;;;;;16.10;97.10;;;;;;5001840;28;20476;-76
2022/12/31 13:10:48;;;;;;;;;;;16.50;96.20;;;;;;5021569;28;19956;-79
2022/12/31 13:13:24;;;;;;;;;;;16.00;97.20;;;;;;5001858;28;19939;-79
2022/12/31 13:15:58;;;;;;;;;;;16.00;98.10;;;;;;5018973;28;19932;-82
2022/12/31 13:18:39;;;;;;;;;;;16.00;97.40;;;;;;5017871;28;20000;-77
2022/12/31 13:21:20;;;;;;;;;;;16.00;97.80;;;;;;4993121;28;20004;-87
2022/12/31 13:23:53;;;;;;;;;;;15.70;97.80;;;;;;4991828;28;20560;-77
2022/12/31 13:26:45;;;;;;;;;;;15.70;98.40;;;;;;5027150;28;19905;-79
2022/12/31 13:29:14;;;;;;;;;;;15.70;98.70;;;;;;4994258;28;19916;-82
2022/12/31 13:31:41;;;;;;;;;;;15.70;99.50;;;;;;4989545;28;19964;-74
2022/12/31 13:34:11;;;;;;;;;;;15.80;99.10;;;;;;5001402;28;20572;-73
2022/12/31 13:36:39;;;;;;;;;;;15.70;99.10;;;;;;5009066;28;19939;-74
2022/12/31 13:39:09;;;;;;;;;;;15.50;99.00;;;;;;5027082;28;19974;-73
2022/12/31 13:41:43;;;;;;;;;;;17.50;99.90;;;;;;5037543;28;19909;-74
2022/12/31 13:44:19;;;;;;;;;;;15.50;99.90;;;;;;5037755;28;19913;-77
2022/12/31 13:46:45;;;;;;;;;;;15.50;99.70;;;;;;5034361;28;19948;-75
2022/12/31 13:49:16;;;;;;;;;;;13.90;99.90;;;;;;5017888;28;20563;-75
2022/12/31 13:51:53;;;;;;;;;;;15.40;99.90;;;;;;5017631;28;19905;-78
2022/12/31 13:54:30;;;;;;;;;;;15.30;99.90;;;;;;5008039;28;19909;-75
2022/12/31 13:56:58;;;;;;;;;;;15.20;99.90;;;;;;5009149;28;19909;-74
2022/12/31 13:59:26;;;;;;;;;;;15.10;99.90;;;;;;4999380;28;19909;-77
2022/12/31 14:02:21;;;;;;;;;;;15.10;99.90;;;;;;4999700;28;19910;-74
2022/12/31 14:04:57;;;;;;;;;;;14.80;99.90;;;;;;4992431;28;19909;-77
2022/12/31 14:07:27;;;;;;;;;;;14.70;99.90;;;;;;5017247;28;20378;-74
2022/12/31 14:09:53;;;;;;;;;;;14.60;99.90;;;;;;5006645;28;19975;-75
2022/12/31 14:12:31;;;;;;;;;;;14.50;99.90;;;;;;5017067;28;20483;-74
2022/12/31 14:15:08;;;;;;;;;;;14.40;99.90;;;;;;5017409;28;19905;-73
2022/12/31 14:17:53;;;;;;;;;;;14.40;99.90;;;;;;5016258;28;20366;-77
2022/12/31 14:20:38;;;;;;;;;;;14.40;99.90;;;;;;4999117;28;19925;-75
2022/12/31 14:23:22;;;;;;;;;;;14.40;99.90;;;;;;4980684;28;19928;-79
2022/12/31 14:25:54;;;;;;;;;;;14.30;99.90;;;;;;4998286;28;19944;-76
2022/12/31 14:28:43;;;;;;;;;;;14.60;99.90;;;;;;4980087;28;19923;-73
2022/12/31 14:31:15;;;;;;;;;;;14.60;99.90;;;;;;4994478;28;20546;-74
2022/12/31 14:33:43;;;;;;;;;;;15.00;99.90;;;;;;4997980;28;20190;-75
2022/12/31 14:36:17;;;;;;;;;;;14.90;99.90;;;;;;4997939;28;19951;-76
2022/12/31 14:39:01;;;;;;;;;;;14.60;99.90;;;;;;4998847;28;20537;-74
2022/12/31 14:41:34;;;;;;;;;;;15.30;99.90;;;;;;4997530;28;20426;-80
2022/12/31 14:44:35;;;;;;;;;;;14.70;99.90;;;;;;4997958;28;20434;-75
2022/12/31 14:47:19;;;;;;;;;;;14.70;99.90;;;;;;4999246;28;19920;-77
2022/12/31 14:49:47;;;;;;;;;;;13.00;99.90;;;;;;5017727;28;19915;-77
2022/12/31 14:52:13;;;;;;;;;;;10.40;99.90;;;;;;5017163;28;19909;-75
2022/12/31 14:54:39;;;;;;;;;;;13.60;99.90;;;;;;5017356;28;19901;-79
2022/12/31 14:57:21;;;;;;;;;;;13.50;99.90;;;;;;5017382;28;19912;-75